Time;durP1;ratioP1;P1;durP2;ratioP2;P2;SDS_P1;SDS_P2;PMS_P1;PMS_P2;Temp;Humidity;BMP_temperature;BMP_pressure;BME280_temperature;BME280_humidity;BME280_pressure;Samples;Min_cycle;Max_cycle;Signal;HPM_P1;HPM_P2
2022/12/05 00:00:30;;;;;;;;;;;;;;;;;;6228665;22;19992;-87
2022/12/05 00:02:56;;;;;;;;;;;;;;;;;;6233545;22;19926;-87
2022/12/05 00:05:22;;;;;;;;;;;;;;;;;;6232585;22;19958;-88
2022/12/05 00:07:48;;;;;;;;;;;;;;;;;;6204212;22;19923;-88
2022/12/05 00:10:14;;;;;;;;;;;;;;;;;;6231601;22;19919;-88
2022/12/05 00:12:40;;;;;;;;;;;;;;;;;;6229593;22;19919;-87
2022/12/05 00:15:08;;;;;;;;;;;;;;;;;;6231475;22;19919;-87
2022/12/05 00:17:34;;;;;;;;;;;;;;;;;;6230039;22;19915;-88
2022/12/05 00:20:00;;;;;;;;;;;;;;;;;;6230878;22;20010;-87
2022/12/05 00:22:26;;;;;;;;;;;;;;;;;;6205066;22;20311;-87
2022/12/05 00:24:52;;;;;;;;;;;;;;;;;;6204317;22;19973;-88
2022/12/05 00:27:18;;;;;;;;;;;;;;;;;;6231329;22;19962;-87
2022/12/05 00:29:44;;;;;;;;;;;;;;;;;;6205192;22;19928;-87
2022/12/05 00:32:09;;;;;;;;;;;;;;;;;;6231940;22;19919;-87
2022/12/05 00:34:36;;;;;;;;;;;;;;;;;;6203202;22;19961;-88
2022/12/05 00:37:02;;;;;;;;;;;;;;;;;;6208201;22;19930;-88
2022/12/05 00:39:29;;;;;;;;;;;;;;;;;;6206442;22;19919;-88
2022/12/05 00:41:55;;;;;;;;;;;;;;;;;;6204810;22;20336;-87
2022/12/05 00:44:20;;;;;;;;;;;;;;;;;;6231385;22;19919;-88
2022/12/05 00:46:46;;;;;;;;;;;;;;;;;;6227160;22;19923;-88
2022/12/05 00:49:12;;;;;;;;;;;;;;;;;;6230515;22;19931;-87
2022/12/05 00:51:38;;;;;;;;;;;;;;;;;;6253356;22;19919;-87
2022/12/05 00:54:04;;;;;;;;;;;;;;;;;;6227396;22;19926;-87
2022/12/05 00:56:30;;;;;;;;;;;;;;;;;;6226398;22;19983;-87
2022/12/05 00:58:56;;;;;;;;;;;;;;;;;;6229112;22;19930;-87
2022/12/05 01:01:22;;;;;;;;;;;;;;;;;;6228922;22;20205;-87
2022/12/05 01:03:48;;;;;;;;;;;;;;;;;;6203231;22;20300;-88
2022/12/05 01:06:14;;;;;;;;;;;;;;;;;;6227539;22;19919;-88
2022/12/05 01:08:40;;;;;;;;;;;;;;;;;;6227671;22;19923;-88
2022/12/05 01:11:06;;;;;;;;;;;;;;;;;;6230876;22;19919;-88
2022/12/05 01:13:32;;;;;;;;;;;;;;;;;;6229469;22;19994;-88
2022/12/05 01:15:58;;;;;;;;;;;;;;;;;;6229198;22;19926;-88
2022/12/05 01:18:24;;;;;;;;;;;;;;;;;;6227326;22;19919;-87
2022/12/05 01:20:50;;;;;;;;;;;;;;;;;;6226208;22;19919;-88
2022/12/05 01:23:15;;;;;;;;;;;;;;;;;;6231172;22;19947;-88
2022/12/05 01:25:41;;;;;;;;;;;;;;;;;;6230226;22;19930;-88
2022/12/05 01:28:07;;;;;;;;;;;;;;;;;;6227807;22;19923;-88
2022/12/05 01:30:33;;;;;;;;;;;;;;;;;;6251428;22;20008;-87
2022/12/05 01:32:59;;;;;;;;;;;;;;;;;;6254851;22;19926;-88
2022/12/05 01:35:25;;;;;;;;;;;;;;;;;;6202304;22;20259;-87
2022/12/05 01:37:51;;;;;;;;;;;;;;;;;;6201948;22;20405;-87
2022/12/05 01:40:17;;;;;;;;;;;;;;;;;;6229720;22;20213;-88
2022/12/05 01:42:43;;;;;;;;;;;;;;;;;;6230215;22;19919;-88
2022/12/05 01:45:09;;;;;;;;;;;;;;;;;;6225103;23;19924;-88
2022/12/05 01:47:35;;;;;;;;;;;;;;;;;;6224179;23;19991;-88
2022/12/05 01:50:01;;;;;;;;;;;;;;;;;;6226522;23;19957;-87
2022/12/05 01:52:27;;;;;;;;;;;;;;;;;;6223623;23;20360;-88
2022/12/05 01:54:53;;;;;;;;;;;;;;;;;;6221296;22;20090;-88
2022/12/05 01:57:19;;;;;;;;;;;;;;;;;;6224214;23;20375;-88
2022/12/05 01:59:45;;;;;;;;;;;;;;;;;;6221845;23;20230;-88
2022/12/05 02:02:11;;;;;;;;;;;;;;;;;;6227696;23;20324;-87
2022/12/05 02:04:37;;;;;;;;;;;;;;;;;;6223734;23;20299;-86
2022/12/05 02:07:03;;;;;;;;;;;;;;;;;;6226298;23;19923;-87
2022/12/05 02:09:31;;;;;;;;;;;;;;;;;;6228456;23;19923;-87
2022/12/05 02:11:57;;;;;;;;;;;;;;;;;;6224846;23;19919;-87
2022/12/05 02:14:23;;;;;;;;;;;;;;;;;;6229158;23;20264;-87
2022/12/05 02:16:50;;;;;;;;;;;;;;;;;;6224568;23;20340;-87
2022/12/05 02:19:16;;;;;;;;;;;;;;;;;;6226976;23;19919;-87
2022/12/05 02:21:42;;;;;;;;;;;;;;;;;;6223355;23;20263;-87
2022/12/05 02:24:08;;;;;;;;;;;;;;;;;;6228023;23;20013;-87
2022/12/05 02:26:34;;;;;;;;;;;;;;;;;;6224819;23;19977;-87
2022/12/05 02:29:00;;;;;;;;;;;;;;;;;;6225888;23;19967;-88
2022/12/05 02:31:26;;;;;;;;;;;;;;;;;;6225453;23;20347;-88
2022/12/05 02:33:51;;;;;;;;;;;;;;;;;;6223298;23;19919;-87
2022/12/05 02:36:17;;;;;;;;;;;;;;;;;;6224335;23;20757;-87
2022/12/05 02:38:43;;;;;;;;;;;;;;;;;;6222353;23;20287;-87
2022/12/05 02:41:09;;;;;;;;;;;;;;;;;;6224949;23;19951;-87
2022/12/05 02:43:35;;;;;;;;;;;;;;;;;;6222143;23;20264;-87
2022/12/05 02:46:01;;;;;;;;;;;;;;;;;;6223953;23;19923;-87
2022/12/05 02:48:27;;;;;;;;;;;;;;;;;;6223071;23;20450;-87
2022/12/05 02:50:53;;;;;;;;;;;;;;;;;;6221644;23;19920;-87
2022/12/05 02:53:19;;;;;;;;;;;;;;;;;;6223593;23;19920;-87
2022/12/05 02:55:45;;;;;;;;;;;;;;;;;;6224692;22;20016;-87
2022/12/05 02:58:11;;;;;;;;;;;;;;;;;;6228428;23;19919;-87
2022/12/05 03:00:37;;;;;;;;;;;;;;;;;;6224433;23;19923;-87
2022/12/05 03:03:03;;;;;;;;;;;;;;;;;;6226614;23;19930;-87
2022/12/05 03:05:29;;;;;;;;;;;;;;;;;;6227456;23;20315;-87
2022/12/05 03:07:55;;;;;;;;;;;;;;;;;;6228390;23;20313;-87
2022/12/05 03:10:21;;;;;;;;;;;;;;;;;;6229606;23;19965;-87
2022/12/05 03:12:46;;;;;;;;;;;;;;;;;;6224855;23;19942;-87
2022/12/05 03:15:12;;;;;;;;;;;;;;;;;;6229274;23;19960;-87
2022/12/05 03:17:38;;;;;;;;;;;;;;;;;;6229341;23;19926;-87
2022/12/05 03:20:04;;;;;;;;;;;;;;;;;;6231126;23;20337;-87
2022/12/05 03:22:30;;;;;;;;;;;;;;;;;;6227780;23;19919;-87
2022/12/05 03:24:56;;;;;;;;;;;;;;;;;;6228889;23;19969;-87
2022/12/05 03:27:22;;;;;;;;;;;;;;;;;;6228755;23;19931;-87
2022/12/05 03:29:48;;;;;;;;;;;;;;;;;;6226789;23;20325;-87
2022/12/05 03:32:14;;;;;;;;;;;;;;;;;;6252113;22;19915;-87
2022/12/05 03:34:40;;;;;;;;;;;;;;;;;;6225308;23;19920;-87
2022/12/05 03:37:06;;;;;;;;;;;;;;;;;;6227083;23;19998;-87
2022/12/05 03:39:32;;;;;;;;;;;;;;;;;;6222804;23;20351;-87
2022/12/05 03:41:58;;;;;;;;;;;;;;;;;;6224425;23;20746;-87
2022/12/05 03:44:24;;;;;;;;;;;;;;;;;;6224676;23;19924;-87
2022/12/05 03:46:50;;;;;;;;;;;;;;;;;;6222252;23;19989;-87
2022/12/05 03:49:16;;;;;;;;;;;;;;;;;;6225560;23;20484;-87
2022/12/05 03:51:42;;;;;;;;;;;;;;;;;;6225259;23;19924;-87
2022/12/05 03:54:08;;;;;;;;;;;;;;;;;;6225495;22;19919;-87
2022/12/05 03:56:34;;;;;;;;;;;;;;;;;;6222306;23;19969;-87
2022/12/05 03:59:00;;;;;;;;;;;;;;;;;;6224897;23;19920;-87
2022/12/05 04:01:26;;;;;;;;;;;;;;;;;;6223186;23;19926;-87
2022/12/05 04:03:52;;;;;;;;;;;;;;;;;;6222404;23;20322;-87
2022/12/05 04:06:18;;;;;;;;;;;;;;;;;;6225862;23;20201;-87
2022/12/05 04:08:43;;;;;;;;;;;;;;;;;;6221119;23;19923;-88
2022/12/05 04:11:09;;;;;;;;;;;;;;;;;;6224431;23;19923;-89
2022/12/05 04:13:36;;;;;;;;;;;;;;;;;;6223263;23;19924;-88
2022/12/05 04:18:46;;;;;;;;;;;;;;;;;;6225750;23;20303;-88
2022/12/05 04:26:42;;;;;;;;;;;;;;;;;;6225890;23;19985;-88
2022/12/05 04:29:08;;;;;;;;;;;;;;;;;;6251204;22;20345;-88
2022/12/05 04:31:34;;;;;;;;;;;;;;;;;;6222979;23;20337;-88
2022/12/05 04:33:59;;;;;;;;;;;;;;;;;;6227850;23;20308;-88
2022/12/05 04:36:25;;;;;;;;;;;;;;;;;;6226362;23;20303;-88
2022/12/05 04:38:51;;;;;;;;;;;;;;;;;;6225047;23;20465;-88
2022/12/05 04:41:17;;;;;;;;;;;;;;;;;;6252347;22;19946;-88
2022/12/05 04:43:43;;;;;;;;;;;;;;;;;;6223763;23;19919;-88
2022/12/05 04:46:09;;;;;;;;;;;;;;;;;;6230638;22;19923;-88
2022/12/05 04:48:35;;;;;;;;;;;;;;;;;;6227557;22;19989;-88
2022/12/05 04:51:01;;;;;;;;;;;;;;;;;;6203461;22;19919;-88
2022/12/05 04:53:27;;;;;;;;;;;;;;;;;;6230810;22;19920;-89
2022/12/05 04:55:53;;;;;;;;;;;;;;;;;;6229463;22;19946;-89
2022/12/05 04:58:19;;;;;;;;;;;;;;;;;;6211986;22;19966;-88
2022/12/05 05:00:45;;;;;;;;;;;;;;;;;;6205269;22;19926;-88
2022/12/05 05:03:11;;;;;;;;;;;;;;;;;;6207071;22;19919;-88
2022/12/05 05:05:37;;;;;;;;;;;;;;;;;;6208835;22;19915;-88
2022/12/05 05:08:03;;;;;;;;;;;;;;;;;;6234950;22;19970;-88
2022/12/05 05:10:29;;;;;;;;;;;;;;;;;;6209736;22;20217;-88
2022/12/05 05:12:55;;;;;;;;;;;;;;;;;;6205347;22;19930;-88
2022/12/05 05:15:21;;;;;;;;;;;;;;;;;;6231428;22;19919;-88
2022/12/05 05:17:47;;;;;;;;;;;;;;;;;;6228042;22;20354;-88
2022/12/05 05:20:26;;;;;;;;;;;;;;;;;;6232606;22;20332;-88
2022/12/05 05:22:52;;;;;;;;;;;;;;;;;;6207812;22;19923;-89
2022/12/05 05:25:18;;;;;;;;;;;;;;;;;;6213507;22;20340;-88
2022/12/05 05:27:43;;;;;;;;;;;;;;;;;;6235972;22;19923;-88
2022/12/05 05:30:09;;;;;;;;;;;;;;;;;;6211031;22;19926;-89
2022/12/05 05:32:35;;;;;;;;;;;;;;;;;;6205501;22;19972;-88
2022/12/05 05:35:01;;;;;;;;;;;;;;;;;;6235058;22;19923;-88
2022/12/05 05:37:27;;;;;;;;;;;;;;;;;;6233106;22;19915;-88
2022/12/05 05:39:53;;;;;;;;;;;;;;;;;;6232437;22;19919;-88
2022/12/05 05:42:19;;;;;;;;;;;;;;;;;;6208628;22;19919;-88
2022/12/05 05:44:45;;;;;;;;;;;;;;;;;;6204835;22;19923;-88
2022/12/05 05:47:11;;;;;;;;;;;;;;;;;;6208125;22;19923;-88
2022/12/05 05:49:37;;;;;;;;;;;;;;;;;;6229493;22;20348;-88
2022/12/05 05:52:03;;;;;;;;;;;;;;;;;;6230926;22;19923;-88
2022/12/05 05:54:29;;;;;;;;;;;;;;;;;;6205232;22;19980;-88
2022/12/05 05:56:55;;;;;;;;;;;;;;;;;;6208507;22;19919;-87
2022/12/05 05:59:21;;;;;;;;;;;;;;;;;;6232188;22;20021;-87
2022/12/05 06:01:47;;;;;;;;;;;;;;;;;;6231223;22;19915;-87
2022/12/05 06:04:13;;;;;;;;;;;;;;;;;;6236435;22;19915;-87
2022/12/05 06:06:39;;;;;;;;;;;;;;;;;;6231283;22;20162;-86
2022/12/05 06:09:05;;;;;;;;;;;;;;;;;;6236558;22;20374;-86
2022/12/05 06:11:30;;;;;;;;;;;;;;;;;;6231267;22;20339;-86
2022/12/05 06:13:57;;;;;;;;;;;;;;;;;;6232922;22;20225;-86
2022/12/05 06:16:22;;;;;;;;;;;;;;;;;;6208024;22;19923;-87
2022/12/05 06:18:48;;;;;;;;;;;;;;;;;;6199602;22;20252;-87
2022/12/05 06:21:14;;;;;;;;;;;;;;;;;;6203507;22;19919;-87
2022/12/05 06:23:40;;;;;;;;;;;;;;;;;;6201873;22;20008;-87
2022/12/05 06:26:06;;;;;;;;;;;;;;;;;;6208036;22;19926;-86
2022/12/05 06:28:32;;;;;;;;;;;;;;;;;;6229187;22;19927;-88
2022/12/05 06:30:58;;;;;;;;;;;;;;;;;;6233097;22;19919;-88
2022/12/05 06:33:24;;;;;;;;;;;;;;;;;;6206241;22;20011;-88
2022/12/05 06:35:50;;;;;;;;;;;;;;;;;;6227496;22;19919;-88
2022/12/05 06:38:16;;;;;;;;;;;;;;;;;;6225347;22;19962;-88
2022/12/05 06:40:42;;;;;;;;;;;;;;;;;;6205460;22;20340;-88
2022/12/05 06:43:08;;;;;;;;;;;;;;;;;;6233099;22;19961;-88
2022/12/05 06:45:34;;;;;;;;;;;;;;;;;;6201540;22;19923;-88
2022/12/05 06:48:00;;;;;;;;;;;;;;;;;;6204170;22;20332;-87
2022/12/05 06:50:26;;;;;;;;;;;;;;;;;;6232114;22;20017;-88
2022/12/05 06:52:52;;;;;;;;;;;;;;;;;;6203519;22;20382;-88
2022/12/05 06:55:18;;;;;;;;;;;;;;;;;;6229866;22;19919;-88
2022/12/05 06:57:44;;;;;;;;;;;;;;;;;;6202026;22;19968;-88
2022/12/05 07:02:58;;;;;;;;;;;;;;;;;;6232485;22;19919;-88
2022/12/05 07:05:24;;;;;;;;;;;;;;;;;;6228486;22;19923;-88
2022/12/05 07:07:50;;;;;;;;;;;;;;;;;;6201859;22;20038;-87
2022/12/05 07:10:16;;;;;;;;;;;;;;;;;;6231944;22;20399;-87
2022/12/05 07:12:42;;;;;;;;;;;;;;;;;;6200305;22;19923;-87
2022/12/05 07:15:08;;;;;;;;;;;;;;;;;;6230452;22;19915;-87
2022/12/05 07:17:34;;;;;;;;;;;;;;;;;;6226980;22;19920;-87
2022/12/05 07:19:59;;;;;;;;;;;;;;;;;;6231996;22;20219;-87
2022/12/05 07:22:25;;;;;;;;;;;;;;;;;;6229498;22;19954;-87
2022/12/05 07:24:52;;;;;;;;;;;;;;;;;;6228358;22;19923;-87
2022/12/05 07:27:18;;;;;;;;;;;;;;;;;;6207409;22;19923;-87
2022/12/05 07:29:44;;;;;;;;;;;;;;;;;;6206138;22;20233;-87
2022/12/05 07:32:10;;;;;;;;;;;;;;;;;;6236269;22;20251;-87
2022/12/05 07:34:37;;;;;;;;;;;;;;;;;;6233604;22;20406;-88
2022/12/05 07:37:03;;;;;;;;;;;;;;;;;;6208234;22;20336;-88
2022/12/05 07:39:29;;;;;;;;;;;;;;;;;;6208448;22;19925;-86
2022/12/05 07:41:55;;;;;;;;;;;;;;;;;;6208773;22;19938;-88
2022/12/05 07:44:21;;;;;;;;;;;;;;;;;;6204864;22;19923;-87
2022/12/05 07:46:47;;;;;;;;;;;;;;;;;;6228064;22;20415;-87
2022/12/05 07:49:14;;;;;;;;;;;;;;;;;;6230927;22;19919;-89
2022/12/05 07:51:40;;;;;;;;;;;;;;;;;;6229801;22;19919;-88
2022/12/05 07:54:06;;;;;;;;;;;;;;;;;;6207431;22;19993;-88
2022/12/05 07:56:32;;;;;;;;;;;;;;;;;;6204095;22;19923;-87
2022/12/05 07:58:58;;;;;;;;;;;;;;;;;;6231112;22;19915;-86
2022/12/05 08:01:24;;;;;;;;;;;;;;;;;;6205334;22;20036;-87
2022/12/05 08:03:50;;;;;;;;;;;;;;;;;;6229560;22;20072;-87
2022/12/05 08:06:16;;;;;;;;;;;;;;;;;;6233258;22;19965;-88
2022/12/05 08:08:42;;;;;;;;;;;;;;;;;;6228655;22;19934;-87
2022/12/05 08:11:10;;;;;;;;;;;;;;;;;;6234365;22;19916;-94
2022/12/05 08:13:37;;;;;;;;;;;;;;;;;;6203223;22;19915;-90
2022/12/05 08:16:03;;;;;;;;;;;;;;;;;;6207507;22;20280;-88
2022/12/05 08:18:30;;;;;;;;;;;;;;;;;;6230983;22;19919;-88
2022/12/05 08:20:57;;;;;;;;;;;;;;;;;;6230516;22;19935;-88
2022/12/05 08:23:24;;;;;;;;;;;;;;;;;;6232186;22;19919;-88
2022/12/05 08:25:51;;;;;;;;;;;;;;;;;;6204644;22;19945;-89
2022/12/05 08:28:19;;;;;;;;;;;;;;;;;;6231226;22;20270;-89
2022/12/05 08:30:46;;;;;;;;;;;;;;;;;;6204381;22;19945;-89
2022/12/05 08:33:13;;;;;;;;;;;;;;;;;;6231640;22;19923;-89
2022/12/05 08:35:41;;;;;;;;;;;;;;;;;;6207698;22;19923;-88
2022/12/05 08:38:08;;;;;;;;;;;;;;;;;;6207245;22;19915;-88
2022/12/05 08:40:35;;;;;;;;;;;;;;;;;;6228846;22;19919;-87
2022/12/05 08:43:02;;;;;;;;;;;;;;;;;;6232539;22;20232;-88
2022/12/05 08:45:30;;;;;;;;;;;;;;;;;;6232073;22;19923;-89
2022/12/05 08:47:57;;;;;;;;;;;;;;;;;;6230021;22;19919;-88
2022/12/05 08:50:24;;;;;;;;;;;;;;;;;;6207291;22;19919;-88
2022/12/05 08:52:51;;;;;;;;;;;;;;;;;;6231082;22;19919;-88
2022/12/05 08:55:19;;;;;;;;;;;;;;;;;;6231786;22;19919;-88
2022/12/05 08:57:46;;;;;;;;;;;;;;;;;;6203943;22;19919;-88
2022/12/05 09:00:13;;;;;;;;;;;;;;;;;;6232912;22;19923;-88
2022/12/05 09:02:40;;;;;;;;;;;;;;;;;;6204097;22;19950;-88
2022/12/05 09:05:08;;;;;;;;;;;;;;;;;;6233844;22;20676;-88
2022/12/05 09:07:33;;;;;;;;;;;;;;;;;;6229974;22;19930;-89
2022/12/05 09:09:59;;;;;;;;;;;;;;;;;;6206447;22;19919;-89
2022/12/05 09:12:25;;;;;;;;;;;;;;;;;;6199780;22;19919;-88
2022/12/05 09:14:51;;;;;;;;;;;;;;;;;;6199591;22;20685;-91
2022/12/05 09:17:17;;;;;;;;;;;;;;;;;;6230358;22;20225;-88
2022/12/05 09:19:44;;;;;;;;;;;;;;;;;;6201359;22;19919;-89
2022/12/05 09:22:10;;;;;;;;;;;;;;;;;;6230567;22;20729;-87
2022/12/05 09:24:36;;;;;;;;;;;;;;;;;;6229341;22;19957;-88
2022/12/05 09:27:02;;;;;;;;;;;;;;;;;;6206999;22;19927;-88
2022/12/05 09:29:31;;;;;;;;;;;;;;;;;;6198071;22;19919;-89
2022/12/05 09:31:57;;;;;;;;;;;;;;;;;;6197293;22;19927;-88
2022/12/05 09:34:24;;;;;;;;;;;;;;;;;;6206729;22;19998;-88
2022/12/05 09:36:51;;;;;;;;;;;;;;;;;;6227019;22;19970;-88
2022/12/05 09:39:17;;;;;;;;;;;;;;;;;;6227952;22;20356;-88
2022/12/05 09:47:24;;;;;;;;;;;;;;;;;;6230912;22;19985;-88
2022/12/05 09:49:50;;;;;;;;;;;;;;;;;;6204851;22;19919;-88
2022/12/05 09:52:16;;;;;;;;;;;;;;;;;;6207227;22;19994;-88
2022/12/05 09:54:42;;;;;;;;;;;;;;;;;;6205913;22;19919;-88
2022/12/05 09:57:08;;;;;;;;;;;;;;;;;;6231393;22;19919;-88
2022/12/05 09:59:34;;;;;;;;;;;;;;;;;;6196467;22;20415;-88
2022/12/05 10:02:00;;;;;;;;;;;;;;;;;;6204759;22;19955;-88
2022/12/05 10:04:26;;;;;;;;;;;;;;;;;;6227474;22;19920;-88
2022/12/05 10:06:52;;;;;;;;;;;;;;;;;;6199016;22;20255;-90
2022/12/05 10:09:18;;;;;;;;;;;;;;;;;;6204053;22;19919;-88
2022/12/05 10:11:44;;;;;;;;;;;;;;;;;;6225077;22;19926;-88
2022/12/05 10:14:11;;;;;;;;;;;;;;;;;;6203742;22;19919;-88
2022/12/05 10:16:36;;;;;;;;;;;;;;;;;;6252124;22;19930;-88
2022/12/05 10:19:03;;;;;;;;;;;;;;;;;;6226586;22;19930;-88
2022/12/05 10:21:32;;;;;;;;;;;;;;;;;;6226777;22;19919;-88
2022/12/05 10:23:58;;;;;;;;;;;;;;;;;;6200095;22;19954;-88
2022/12/05 10:26:24;;;;;;;;;;;;;;;;;;6224156;22;19926;-88
2022/12/05 10:28:50;;;;;;;;;;;;;;;;;;6200615;22;20129;-88
2022/12/05 10:31:16;;;;;;;;;;;;;;;;;;6202039;22;20536;-88
2022/12/05 10:33:42;;;;;;;;;;;;;;;;;;6198656;22;19923;-88
2022/12/05 10:36:10;;;;;;;;;;;;;;;;;;6227592;22;19955;-88
2022/12/05 10:38:37;;;;;;;;;;;;;;;;;;6225971;22;20332;-89
2022/12/05 10:41:03;;;;;;;;;;;;;;;;;;6204193;22;20335;-88
2022/12/05 10:43:29;;;;;;;;;;;;;;;;;;6226195;22;19926;-89
2022/12/05 10:45:55;;;;;;;;;;;;;;;;;;6220734;23;20094;-88
2022/12/05 10:48:21;;;;;;;;;;;;;;;;;;6224213;23;20038;-88
2022/12/05 10:50:47;;;;;;;;;;;;;;;;;;6222262;23;20034;-89
2022/12/05 10:53:13;;;;;;;;;;;;;;;;;;6225256;23;20093;-88
2022/12/05 10:55:39;;;;;;;;;;;;;;;;;;6223756;22;19961;-89
2022/12/05 10:58:05;;;;;;;;;;;;;;;;;;6227208;23;19920;-89
2022/12/05 11:00:31;;;;;;;;;;;;;;;;;;6222473;23;19931;-89
2022/12/05 11:02:57;;;;;;;;;;;;;;;;;;6223725;23;19952;-88
2022/12/05 11:05:23;;;;;;;;;;;;;;;;;;6227800;23;19920;-89
2022/12/05 11:07:49;;;;;;;;;;;;;;;;;;6221989;23;20364;-89
2022/12/05 11:10:15;;;;;;;;;;;;;;;;;;6221076;23;19977;-88
2022/12/05 11:12:41;;;;;;;;;;;;;;;;;;6220098;23;20303;-88
2022/12/05 11:15:07;;;;;;;;;;;;;;;;;;6220487;23;19919;-89
2022/12/05 11:17:33;;;;;;;;;;;;;;;;;;6216083;23;20018;-89
2022/12/05 11:19:59;;;;;;;;;;;;;;;;;;6224405;23;19969;-88
2022/12/05 11:22:25;;;;;;;;;;;;;;;;;;6225703;23;19919;-89
2022/12/05 11:24:51;;;;;;;;;;;;;;;;;;6218253;23;19989;-88
2022/12/05 11:27:17;;;;;;;;;;;;;;;;;;6221640;23;19955;-89
2022/12/05 11:29:56;;;;;;;;;;;;;;;;;;;;;
2022/12/05 11:32:22;;;;;;;;;;;;;;;;;;6250663;22;19924;-88
2022/12/05 11:34:48;;;;;;;;;;;;;;;;;;6221154;23;20248;-89
2022/12/05 11:40:27;;;;;;;;;;;;;;;;;;6249139;22;20503;-88
2022/12/05 11:43:02;;;;;;;;;;;;;;;;;;6219088;23;19926;-89
2022/12/05 11:45:59;;;;;;;;;;;;;;;;;;6240449;22;20336;-89
2022/12/05 11:48:28;;;;;;;;;;;;;;;;;;6221455;23;19997;-88
2022/12/05 11:51:03;;;;;;;;;;;;;;;;;;6224737;23;20302;-89
2022/12/05 11:53:35;;;;;;;;;;;;;;;;;;6221700;23;19998;-89
2022/12/05 11:56:04;;;;;;;;;;;;;;;;;;6220434;23;20549;-89
2022/12/05 11:58:38;;;;;;;;;;;;;;;;;;6220379;23;19973;-88
2022/12/05 12:01:07;;;;;;;;;;;;;;;;;;6223691;23;19957;-89
2022/12/05 12:03:39;;;;;;;;;;;;;;;;;;6216382;23;19973;-88
2022/12/05 12:06:14;;;;;;;;;;;;;;;;;;6221920;23;20402;-88
2022/12/05 12:08:55;;;;;;;;;;;;;;;;;;6253223;22;19923;-89
2022/12/05 12:11:37;;;;;;;;;;;;;;;;;;6246362;22;19966;-89
2022/12/05 12:14:19;;;;;;;;;;;;;;;;;;6245449;22;20002;-89
2022/12/05 12:16:50;;;;;;;;;;;;;;;;;;6157964;23;19978;-89
2022/12/05 12:19:19;;;;;;;;;;;;;;;;;;6113555;23;19923;-89
2022/12/05 12:21:51;;;;;;;;;;;;;;;;;;6112027;23;20199;-89
2022/12/05 12:24:17;;;;;;;;;;;;;;;;;;6113596;23;19920;-88
2022/12/05 12:26:43;;;;;;;;;;;;;;;;;;6160633;23;20392;-89
2022/12/05 12:29:09;;;;;;;;;;;;;;;;;;6164546;23;19924;-89
2022/12/05 12:31:35;;;;;;;;;;;;;;;;;;6161101;23;19924;-89
2022/12/05 12:34:01;;;;;;;;;;;;;;;;;;6164543;23;20287;-89
2022/12/05 12:36:27;;;;;;;;;;;;;;;;;;6165692;23;19924;-89
2022/12/05 12:38:53;;;;;;;;;;;;;;;;;;6114898;23;19920;-89
2022/12/05 12:41:19;;;;;;;;;;;;;;;;;;6166817;23;20353;-88
2022/12/05 12:43:45;;;;;;;;;;;;;;;;;;6161762;23;20361;-89
2022/12/05 12:46:11;;;;;;;;;;;;;;;;;;6164696;23;19935;-89
2022/12/05 12:48:37;;;;;;;;;;;;;;;;;;6194316;23;19923;-89
2022/12/05 12:51:03;;;;;;;;;;;;;;;;;;6204129;23;19996;-89
2022/12/05 12:53:29;;;;;;;;;;;;;;;;;;6202575;23;19919;-89
2022/12/05 12:55:55;;;;;;;;;;;;;;;;;;6201072;23;19946;-89
2022/12/05 12:58:21;;;;;;;;;;;;;;;;;;6227433;23;19994;-88
2022/12/05 13:00:47;;;;;;;;;;;;;;;;;;6190656;23;20009;-88
2022/12/05 13:03:13;;;;;;;;;;;;;;;;;;6195082;23;19920;-88
2022/12/05 13:05:39;;;;;;;;;;;;;;;;;;6189598;23;20602;-88
2022/12/05 13:08:05;;;;;;;;;;;;;;;;;;6195689;23;20321;-89
2022/12/05 13:10:32;;;;;;;;;;;;;;;;;;6191206;23;19931;-89
2022/12/05 13:12:58;;;;;;;;;;;;;;;;;;6192569;23;19920;-89
2022/12/05 13:15:24;;;;;;;;;;;;;;;;;;6193839;23;20260;-89
2022/12/05 13:17:50;;;;;;;;;;;;;;;;;;6191430;23;19930;-89
2022/12/05 13:20:16;;;;;;;;;;;;;;;;;;6190880;23;20446;-90
2022/12/05 13:22:42;;;;;;;;;;;;;;;;;;6193110;23;19924;-89
2022/12/05 13:25:08;;;;;;;;;;;;;;;;;;6198271;23;19919;-89
2022/12/05 13:27:34;;;;;;;;;;;;;;;;;;6190188;23;20263;-89
2022/12/05 13:30:00;;;;;;;;;;;;;;;;;;6190925;23;20339;-89
2022/12/05 13:32:26;;;;;;;;;;;;;;;;;;6191614;23;19919;-92
2022/12/05 13:34:52;;;;;;;;;;;;;;;;;;6197035;23;19920;-89
2022/12/05 13:42:53;;;;;;;;;;;;;;;;;;6199481;23;19927;-89
2022/12/05 13:45:19;;;;;;;;;;;;;;;;;;6208939;23;19931;-89
2022/12/05 13:47:45;;;;;;;;;;;;;;;;;;6225524;23;19927;-89
2022/12/05 13:50:11;;;;;;;;;;;;;;;;;;6226743;23;19985;-90
2022/12/05 13:52:37;;;;;;;;;;;;;;;;;;6221914;23;20248;-89
2022/12/05 13:55:05;;;;;;;;;;;;;;;;;;6253359;22;19919;-89
2022/12/05 13:57:31;;;;;;;;;;;;;;;;;;6223929;23;19919;-89
2022/12/05 13:59:57;;;;;;;;;;;;;;;;;;6227244;23;19978;-89
2022/12/05 14:02:23;;;;;;;;;;;;;;;;;;6222739;23;19920;-90
2022/12/05 14:04:49;;;;;;;;;;;;;;;;;;6221894;23;20317;-89
2022/12/05 14:07:15;;;;;;;;;;;;;;;;;;6224606;23;20329;-89
2022/12/05 14:09:41;;;;;;;;;;;;;;;;;;6225359;23;20030;-89
2022/12/05 14:12:07;;;;;;;;;;;;;;;;;;6225467;23;19919;-89
2022/12/05 14:14:33;;;;;;;;;;;;;;;;;;6221447;23;19916;-89
2022/12/05 14:17:04;;;;;;;;;;;;;;;;;;6224874;23;20224;-89
2022/12/05 14:19:33;;;;;;;;;;;;;;;;;;6223987;23;19946;-89
2022/12/05 14:21:59;;;;;;;;;;;;;;;;;;6226476;23;19920;-89
2022/12/05 14:24:25;;;;;;;;;;;;;;;;;;6231793;23;19969;-90
2022/12/05 14:26:51;;;;;;;;;;;;;;;;;;6226581;23;19924;-90
2022/12/05 14:29:17;;;;;;;;;;;;;;;;;;6229785;23;20352;-90
2022/12/05 14:31:43;;;;;;;;;;;;;;;;;;6223616;23;19920;-90
2022/12/05 14:34:09;;;;;;;;;;;;;;;;;;6224153;23;20337;-90
2022/12/05 14:36:37;;;;;;;;;;;;;;;;;;6223157;23;19997;-89
2022/12/05 14:39:03;;;;;;;;;;;;;;;;;;6225000;23;19920;-89
2022/12/05 14:41:29;;;;;;;;;;;;;;;;;;6224898;23;20251;-89
2022/12/05 14:43:55;;;;;;;;;;;;;;;;;;6225304;23;20380;-90
2022/12/05 14:46:21;;;;;;;;;;;;;;;;;;6223078;23;20055;-90
2022/12/05 14:48:48;;;;;;;;;;;;;;;;;;6221198;23;19924;-90
2022/12/05 14:51:14;;;;;;;;;;;;;;;;;;6224223;23;20316;-89
2022/12/05 14:53:41;;;;;;;;;;;;;;;;;;6249342;22;19991;-89
2022/12/05 14:56:07;;;;;;;;;;;;;;;;;;6224832;23;19919;-90
2022/12/05 14:58:33;;;;;;;;;;;;;;;;;;6221724;23;19927;-89
2022/12/05 15:00:59;;;;;;;;;;;;;;;;;;6223239;23;19919;-89
2022/12/05 15:03:25;;;;;;;;;;;;;;;;;;6224085;23;19951;-89
2022/12/05 15:05:51;;;;;;;;;;;;;;;;;;6221585;23;19920;-90
2022/12/05 15:08:17;;;;;;;;;;;;;;;;;;6226176;23;19973;-90
2022/12/05 15:10:44;;;;;;;;;;;;;;;;;;6220912;23;19951;-90
2022/12/05 15:13:10;;;;;;;;;;;;;;;;;;6227159;23;19927;-90
2022/12/05 15:15:36;;;;;;;;;;;;;;;;;;6229667;23;19919;-90
2022/12/05 15:21:12;;;;;;;;;;;;;;;;;;6225335;22;19942;-89
2022/12/05 15:26:36;;;;;;;;;;;;;;;;;;6208697;23;19999;-89
2022/12/05 15:29:02;;;;;;;;;;;;;;;;;;6215687;23;19928;-89
2022/12/05 15:31:37;;;;;;;;;;;;;;;;;;6223534;23;19926;-89
2022/12/05 15:34:03;;;;;;;;;;;;;;;;;;6226358;23;19919;-89
2022/12/05 15:36:32;;;;;;;;;;;;;;;;;;6226407;23;19990;-89
2022/12/05 15:38:58;;;;;;;;;;;;;;;;;;6227237;23;19920;-89
2022/12/05 15:41:24;;;;;;;;;;;;;;;;;;6228574;23;19927;-89
2022/12/05 15:43:53;;;;;;;;;;;;;;;;;;6226272;23;19919;-90
2022/12/05 15:49:11;;;;;;;;;;;;;;;;;;6252426;22;19927;-89
2022/12/05 15:51:37;;;;;;;;;;;;;;;;;;6226909;23;20411;-89
2022/12/05 15:54:03;;;;;;;;;;;;;;;;;;6229236;22;19924;-89
2022/12/05 15:56:32;;;;;;;;;;;;;;;;;;6225217;23;19931;-89
2022/12/05 15:58:58;;;;;;;;;;;;;;;;;;6228149;23;19919;-88
2022/12/05 16:01:24;;;;;;;;;;;;;;;;;;6226189;23;19925;-89
2022/12/05 16:03:50;;;;;;;;;;;;;;;;;;6225115;23;20320;-89
2022/12/05 16:06:16;;;;;;;;;;;;;;;;;;6227078;23;19926;-89
2022/12/05 16:08:42;;;;;;;;;;;;;;;;;;6225695;23;19939;-89
2022/12/05 16:11:08;;;;;;;;;;;;;;;;;;6225419;23;20332;-89
2022/12/05 16:13:34;;;;;;;;;;;;;;;;;;6224053;23;20324;-89
2022/12/05 16:16:10;;;;;;;;;;;;;;;;;;;;;
2022/12/05 16:18:36;;;;;;;;;;;;;;;;;;6249528;22;19928;-89
2022/12/05 16:21:02;;;;;;;;;;;;;;;;;;6227623;23;19943;-89
2022/12/05 16:23:32;;;;;;;;;;;;;;;;;;6227443;23;19972;-89
2022/12/05 16:25:58;;;;;;;;;;;;;;;;;;6225833;23;20291;-89
2022/12/05 16:28:24;;;;;;;;;;;;;;;;;;6227217;23;19919;-89
2022/12/05 16:30:50;;;;;;;;;;;;;;;;;;6221282;23;20205;-89
2022/12/05 16:33:15;;;;;;;;;;;;;;;;;;6227991;23;19919;-89
2022/12/05 16:35:41;;;;;;;;;;;;;;;;;;6246933;22;20319;-89
2022/12/05 16:38:07;;;;;;;;;;;;;;;;;;6227231;23;19916;-89
2022/12/05 16:40:33;;;;;;;;;;;;;;;;;;6224842;23;20236;-89
2022/12/05 16:42:59;;;;;;;;;;;;;;;;;;6226880;23;19919;-89
2022/12/05 16:45:25;;;;;;;;;;;;;;;;;;6233897;22;20654;-89
2022/12/05 16:47:51;;;;;;;;;;;;;;;;;;6226614;22;19988;-89
2022/12/05 16:50:17;;;;;;;;;;;;;;;;;;6200029;22;19919;-89
2022/12/05 16:52:43;;;;;;;;;;;;;;;;;;6228076;22;19937;-89
2022/12/05 16:55:09;;;;;;;;;;;;;;;;;;6261048;22;19976;-89
2022/12/05 16:57:35;;;;;;;;;;;;;;;;;;6230299;22;19966;-88
2022/12/05 17:00:05;;;;;;;;;;;;;;;;;;6233065;22;19919;-89
2022/12/05 17:02:30;;;;;;;;;;;;;;;;;;6253223;22;19955;-87
2022/12/05 17:04:56;;;;;;;;;;;;;;;;;;6233683;22;20344;-89
2022/12/05 17:07:22;;;;;;;;;;;;;;;;;;6206512;22;19942;-89
2022/12/05 17:09:48;;;;;;;;;;;;;;;;;;6230177;22;20006;-89
2022/12/05 17:15:16;;;;;;;;;;;;;;;;;;6146375;23;19995;-89
2022/12/05 17:17:42;;;;;;;;;;;;;;;;;;6191819;22;20318;-89